Time;durP1;ratioP1;P1;durP2;ratioP2;P2;SDS_P1;SDS_P2;PMS_P1;PMS_P2;Temp;Humidity;BMP_temperature;BMP_pressure;BME280_temperature;BME280_humidity;BME280_pressure;Samples;Min_cycle;Max_cycle;Signal;HPM_P1;HPM_P2
2023/04/29 00:00:45;;;;;;;16.92;9.48;;;;;;;;;;5020328;23;20049;-66
2023/04/29 00:03:11;;;;;;;17.35;10.55;;;;;;;;;;5011992;28;20014;-66
2023/04/29 00:05:36;;;;;;;15.65;10.20;;;;;;;;;;5010907;28;20026;-66
2023/04/29 00:08:02;;;;;;;17.02;9.75;;;;;;;;;;5010146;28;20105;-65
2023/04/29 00:10:28;;;;;;;19.42;9.80;;;;;;;;;;5010089;28;20104;-65
2023/04/29 00:12:53;;;;;;;15.25;9.65;;;;;;;;;;5009346;28;20467;-63
2023/04/29 00:15:18;;;;;;;15.50;9.38;;;;;;;;;;5010225;28;20088;-65
2023/04/29 00:17:44;;;;;;;14.57;9.15;;;;;;;;;;5009471;28;20419;-64
2023/04/29 00:20:10;;;;;;;16.25;9.15;;;;;;;;;;5009720;28;20022;-65
2023/04/29 00:22:36;;;;;;;15.38;9.60;;;;;;;;;;5010299;28;20025;-65
2023/04/29 00:25:01;;;;;;;17.42;10.20;;;;;;;;;;5009316;28;20032;-64
2023/04/29 00:27:26;;;;;;;14.02;8.93;;;;;;;;;;5009902;28;20499;-65
2023/04/29 00:29:51;;;;;;;16.73;9.18;;;;;;;;;;5010012;28;20486;-64
2023/04/29 00:32:17;;;;;;;15.63;9.15;;;;;;;;;;5010071;28;20022;-64
2023/04/29 00:34:42;;;;;;;17.52;9.27;;;;;;;;;;5009780;28;20101;-63
2023/04/29 00:37:07;;;;;;;16.52;8.65;;;;;;;;;;5010014;28;20014;-65
2023/04/29 00:39:32;;;;;;;16.85;9.00;;;;;;;;;;5003834;28;20018;-64
2023/04/29 00:41:58;;;;;;;14.95;8.88;;;;;;;;;;5009543;28;20030;-67
2023/04/29 00:44:23;;;;;;;19.55;8.82;;;;;;;;;;5009942;28;20026;-65
2023/04/29 00:46:48;;;;;;;14.85;8.75;;;;;;;;;;5010015;28;20185;-66
2023/04/29 00:49:14;;;;;;;16.35;9.25;;;;;;;;;;5009967;28;20017;-66
2023/04/29 00:51:40;;;;;;;17.67;9.63;;;;;;;;;;5009698;28;20018;-66
2023/04/29 00:54:06;;;;;;;18.30;9.45;;;;;;;;;;5010693;28;20093;-66
2023/04/29 00:56:32;;;;;;;13.65;8.73;;;;;;;;;;5012482;28;20097;-64
2023/04/29 00:58:58;;;;;;;15.95;8.65;;;;;;;;;;5012575;28;20406;-64
2023/04/29 01:01:24;;;;;;;15.77;8.55;;;;;;;;;;5012334;28;20489;-65
2023/04/29 01:03:49;;;;;;;14.13;9.02;;;;;;;;;;5011935;28;20018;-62
2023/04/29 01:06:23;;;;;;;18.55;9.02;;;;;;;;;;5012377;28;20088;-66
2023/04/29 01:08:51;;;;;;;14.05;9.20;;;;;;;;;;5012534;28;20022;-66
2023/04/29 01:11:18;;;;;;;14.63;9.10;;;;;;;;;;5012173;28;20512;-66
2023/04/29 01:13:53;;;;;;;15.02;9.45;;;;;;;;;;5011827;28;20729;-66
2023/04/29 01:16:30;;;;;;;18.70;10.18;;;;;;;;;;5011276;28;20022;-65
2023/04/29 01:19:01;;;;;;;13.93;9.15;;;;;;;;;;5012716;28;20018;-63
2023/04/29 01:21:27;;;;;;;14.80;9.40;;;;;;;;;;5012556;28;20014;-65
2023/04/29 01:23:55;;;;;;;15.30;9.18;;;;;;;;;;5011569;28;20030;-67
2023/04/29 01:26:21;;;;;;;24.05;9.95;;;;;;;;;;5008355;28;20017;-66
2023/04/29 01:28:49;;;;;;;16.00;9.93;;;;;;;;;;5011837;28;20057;-68
2023/04/29 01:31:18;;;;;;;19.00;10.20;;;;;;;;;;5012819;28;20025;-65
2023/04/29 01:33:43;;;;;;;;;;;;;;;;;;5012781;28;20522;-65
2023/04/29 01:36:21;;;;;;;16.25;10.05;;;;;;;;;;5012703;28;20236;-66
2023/04/29 01:38:50;;;;;;;23.13;11.35;;;;;;;;;;4999105;28;20020;-63
2023/04/29 01:41:17;;;;;;;18.23;10.30;;;;;;;;;;5006440;28;20076;-65
2023/04/29 01:43:46;;;;;;;17.92;9.75;;;;;;;;;;5011742;28;20049;-65
2023/04/29 01:46:11;;;;;;;;;;;;;;;;;;5012291;28;20033;-65
2023/04/29 01:48:37;;;;;;;21.80;10.50;;;;;;;;;;5012257;28;19905;-65
2023/04/29 01:51:02;;;;;;;17.08;10.27;;;;;;;;;;5012095;28;20017;-65
2023/04/29 01:53:28;;;;;;;18.95;9.65;;;;;;;;;;5012470;28;20033;-65
2023/04/29 01:55:53;;;;;;;17.45;10.13;;;;;;;;;;5012105;28;20400;-66
2023/04/29 01:58:18;;;;;;;21.27;10.95;;;;;;;;;;5011573;28;20022;-65
2023/04/29 02:00:43;;;;;;;17.13;10.13;;;;;;;;;;5011324;28;20021;-65
2023/04/29 02:03:09;;;;;;;16.38;9.45;;;;;;;;;;5012061;28;20018;-62
2023/04/29 02:05:34;;;;;;;19.23;10.88;;;;;;;;;;5011100;28;20022;-65
2023/04/29 02:08:00;;;;;;;17.42;10.52;;;;;;;;;;5012188;28;20032;-65
2023/04/29 02:10:26;;;;;;;17.13;10.63;;;;;;;;;;5011613;28;20089;-65
2023/04/29 02:12:51;;;;;;;17.15;9.80;;;;;;;;;;5011567;28;20060;-64
2023/04/29 02:15:18;;;;;;;16.73;10.43;;;;;;;;;;5012113;28;20026;-65
2023/04/29 02:17:43;;;;;;;22.55;11.07;;;;;;;;;;4998824;28;20017;-66
2023/04/29 02:20:09;;;;;;;20.20;10.88;;;;;;;;;;5011361;28;20014;-64
2023/04/29 02:22:34;;;;;;;18.52;10.88;;;;;;;;;;5011611;28;20029;-65
2023/04/29 02:25:00;;;;;;;16.27;9.95;;;;;;;;;;5009038;28;20014;-65
2023/04/29 02:27:26;;;;;;;17.77;10.55;;;;;;;;;;5010539;28;20034;-66
2023/04/29 02:29:51;;;;;;;18.30;10.65;;;;;;;;;;5004355;28;20029;-67
2023/04/29 02:32:18;;;;;;;22.42;11.25;;;;;;;;;;5011210;28;20018;-65
2023/04/29 02:34:44;;;;;;;21.42;11.27;;;;;;;;;;5011094;28;20018;-66
2023/04/29 02:37:10;;;;;;;16.20;10.45;;;;;;;;;;5011414;28;20017;-65
2023/04/29 02:39:35;;;;;;;22.85;11.48;;;;;;;;;;5004294;28;20022;-66
2023/04/29 02:42:00;;;;;;;16.70;10.73;;;;;;;;;;5008481;28;20033;-65
2023/04/29 02:44:25;;;;;;;18.13;10.77;;;;;;;;;;5010818;28;20017;-65
2023/04/29 02:46:51;;;;;;;21.65;12.40;;;;;;;;;;5010839;28;20053;-66
2023/04/29 02:49:16;;;;;;;21.92;11.45;;;;;;;;;;5010866;28;20021;-65
2023/04/29 02:51:41;;;;;;;21.40;12.00;;;;;;;;;;5010541;28;20055;-65
2023/04/29 02:54:07;;;;;;;21.35;12.18;;;;;;;;;;5010753;28;20018;-66
2023/04/29 02:56:32;;;;;;;23.65;11.20;;;;;;;;;;5010761;28;20460;-66
2023/04/29 02:58:57;;;;;;;19.92;11.27;;;;;;;;;;5010582;28;20548;-64
2023/04/29 03:01:23;;;;;;;23.15;12.43;;;;;;;;;;5010618;28;20470;-64
2023/04/29 03:03:48;;;;;;;18.58;11.50;;;;;;;;;;5008866;28;20018;-65
2023/04/29 03:06:14;;;;;;;21.40;12.20;;;;;;;;;;5010396;28;20044;-65
2023/04/29 03:08:40;;;;;;;20.90;12.20;;;;;;;;;;5010797;28;20098;-65
2023/04/29 03:11:05;;;;;;;21.85;12.85;;;;;;;;;;5010467;28;20076;-65
2023/04/29 03:13:30;;;;;;;22.35;13.18;;;;;;;;;;5010636;28;20111;-65
2023/04/29 03:15:58;;;;;;;27.77;12.77;;;;;;;;;;5010888;28;20399;-65
2023/04/29 03:18:23;;;;;;;22.13;13.65;;;;;;;;;;5010564;28;20126;-65
2023/04/29 03:20:49;;;;;;;23.52;13.63;;;;;;;;;;5009562;28;20102;-66
2023/04/29 03:23:14;;;;;;;21.45;13.23;;;;;;;;;;5010676;28;20029;-63
2023/04/29 03:25:39;;;;;;;24.35;13.60;;;;;;;;;;5007079;28;20422;-66
2023/04/29 03:28:04;;;;;;;26.50;14.60;;;;;;;;;;5010139;28;20615;-66
2023/04/29 03:30:30;;;;;;;21.98;12.82;;;;;;;;;;5010614;28;20042;-66
2023/04/29 03:32:55;;;;;;;21.30;12.35;;;;;;;;;;5010961;28;20029;-65
2023/04/29 03:35:20;;;;;;;22.30;13.88;;;;;;;;;;5009245;28;20496;-66
2023/04/29 03:37:45;;;;;;;21.63;13.18;;;;;;;;;;5010346;28;20041;-64
2023/04/29 03:40:11;;;;;;;22.17;12.85;;;;;;;;;;5002605;28;20026;-64
2023/04/29 03:42:36;;;;;;;24.10;12.93;;;;;;;;;;5010375;28;20033;-65
2023/04/29 03:45:02;;;;;;;29.27;13.25;;;;;;;;;;5010242;28;20084;-66
2023/04/29 03:47:27;;;;;;;21.38;12.90;;;;;;;;;;5010366;28;20044;-65
2023/04/29 03:49:52;;;;;;;21.95;11.60;;;;;;;;;;5009953;28;20041;-62
2023/04/29 03:52:17;;;;;;;23.10;13.52;;;;;;;;;;5009820;28;20033;-64
2023/04/29 03:54:43;;;;;;;20.88;12.43;;;;;;;;;;5009902;28;20010;-65
2023/04/29 03:57:08;;;;;;;23.52;13.13;;;;;;;;;;5010325;28;20399;-65
2023/04/29 03:59:33;;;;;;;22.55;12.73;;;;;;;;;;5009694;28;20030;-66
2023/04/29 04:01:58;;;;;;;24.98;12.10;;;;;;;;;;5010557;28;20018;-66
2023/04/29 04:04:24;;;;;;;21.33;13.35;;;;;;;;;;5009863;28;20438;-64
2023/04/29 04:06:50;;;;;;;24.50;12.65;;;;;;;;;;5010467;28;20113;-66
2023/04/29 04:09:16;;;;;;;22.98;12.73;;;;;;;;;;5002879;28;20435;-66
2023/04/29 04:11:41;;;;;;;24.75;12.18;;;;;;;;;;5010770;28;20026;-66
2023/04/29 04:14:07;;;;;;;21.75;12.77;;;;;;;;;;5009428;28;20093;-66
2023/04/29 04:16:32;;;;;;;22.45;12.93;;;;;;;;;;5009752;28;20637;-66
2023/04/29 04:18:58;;;;;;;22.35;12.65;;;;;;;;;;5010091;28;20084;-65
2023/04/29 04:21:24;;;;;;;21.08;12.20;;;;;;;;;;5006502;28;20448;-64
2023/04/29 04:23:50;;;;;;;25.77;12.48;;;;;;;;;;5002741;28;20025;-66
2023/04/29 04:26:15;;;;;;;19.85;12.18;;;;;;;;;;5005776;28;20018;-65
2023/04/29 04:28:40;;;;;;;19.85;11.20;;;;;;;;;;4999283;28;20075;-65
2023/04/29 04:31:05;;;;;;;20.77;11.93;;;;;;;;;;5000711;28;20088;-64
2023/04/29 04:33:31;;;;;;;19.38;11.88;;;;;;;;;;5013218;28;20394;-63
2023/04/29 04:35:56;;;;;;;21.17;11.93;;;;;;;;;;5013388;28;20172;-65
2023/04/29 04:38:24;;;;;;;23.55;11.75;;;;;;;;;;5013386;28;20088;-64
2023/04/29 04:40:49;;;;;;;24.25;12.80;;;;;;;;;;5009635;28;20029;-66
2023/04/29 04:43:14;;;;;;;21.83;12.35;;;;;;;;;;5005494;28;20021;-65
2023/04/29 04:45:39;;;;;;;19.98;11.40;;;;;;;;;;5015345;28;20136;-66
2023/04/29 04:48:05;;;;;;;22.77;13.05;;;;;;;;;;5010712;28;20073;-65
2023/04/29 04:50:30;;;;;;;19.23;11.65;;;;;;;;;;5013743;28;20034;-64
2023/04/29 04:52:56;;;;;;;18.83;11.48;;;;;;;;;;5012811;28;20025;-66
2023/04/29 04:55:21;;;;;;;25.77;12.80;;;;;;;;;;5011599;28;20021;-65
2023/04/29 04:57:46;;;;;;;18.27;10.25;;;;;;;;;;5011484;28;20083;-65
2023/04/29 05:00:12;;;;;;;22.00;12.48;;;;;;;;;;5010256;28;20223;-65
2023/04/29 05:02:37;;;;;;;23.75;12.60;;;;;;;;;;5010163;28;20022;-68
2023/04/29 05:05:02;;;;;;;20.75;11.98;;;;;;;;;;5011884;28;20410;-65
2023/04/29 05:07:28;;;;;;;27.20;13.23;;;;;;;;;;5010013;28;20470;-66
2023/04/29 05:09:53;;;;;;;22.80;11.80;;;;;;;;;;5009996;28;20109;-66
2023/04/29 05:12:18;;;;;;;21.83;11.18;;;;;;;;;;5012297;28;20033;-66
2023/04/29 05:14:43;;;;;;;20.73;11.48;;;;;;;;;;5012291;28;20399;-66
2023/04/29 05:17:10;;;;;;;20.23;10.65;;;;;;;;;;5011455;28;20026;-63
2023/04/29 05:19:35;;;;;;;19.48;11.02;;;;;;;;;;5012283;28;20029;-66
2023/04/29 05:22:00;;;;;;;21.70;11.10;;;;;;;;;;5010278;28;20026;-65
2023/04/29 05:24:25;;;;;;;21.52;11.38;;;;;;;;;;5010407;28;20033;-66
2023/04/29 05:26:52;;;;;;;23.23;11.75;;;;;;;;;;5009054;28;20037;-64
2023/04/29 05:29:18;;;;;;;22.85;11.85;;;;;;;;;;5014198;28;20056;-66
2023/04/29 05:31:43;;;;;;;21.00;10.77;;;;;;;;;;5014933;28;20029;-66
2023/04/29 05:34:08;;;;;;;22.90;12.52;;;;;;;;;;5015455;28;20022;-63
2023/04/29 05:36:33;;;;;;;23.08;12.55;;;;;;;;;;5014022;28;20034;-68
2023/04/29 05:38:59;;;;;;;23.27;13.40;;;;;;;;;;5006426;28;20050;-65
2023/04/29 05:41:24;;;;;;;26.30;13.38;;;;;;;;;;5010206;28;20494;-65
2023/04/29 05:43:50;;;;;;;27.00;14.07;;;;;;;;;;5011981;28;20018;-65
2023/04/29 05:46:15;;;;;;;21.77;13.00;;;;;;;;;;5012083;28;20353;-66
2023/04/29 05:48:40;;;;;;;24.88;13.48;;;;;;;;;;5005045;28;20044;-64
2023/04/29 05:51:06;;;;;;;25.23;13.88;;;;;;;;;;5006704;28;20021;-65
2023/04/29 05:53:32;;;;;;;25.27;13.25;;;;;;;;;;5011438;28;20384;-66
2023/04/29 05:55:57;;;;;;;25.00;13.68;;;;;;;;;;5011242;28;20507;-64
2023/04/29 05:58:23;;;;;;;24.20;13.88;;;;;;;;;;5011075;28;20022;-65
2023/04/29 06:00:48;;;;;;;23.35;13.23;;;;;;;;;;5023667;23;20068;-68
2023/04/29 06:03:13;;;;;;;21.83;13.13;;;;;;;;;;5009504;28;20026;-70
2023/04/29 06:05:39;;;;;;;21.90;12.98;;;;;;;;;;5023677;28;20025;-71
2023/04/29 06:08:04;;;;;;;22.95;13.40;;;;;;;;;;5010748;28;20464;-70
2023/04/29 06:10:30;;;;;;;23.80;13.00;;;;;;;;;;5010235;28;20017;-72
2023/04/29 06:12:56;;;;;;;21.17;12.38;;;;;;;;;;5009495;28;20030;-69
2023/04/29 06:15:21;;;;;;;22.95;12.30;;;;;;;;;;5009054;28;20065;-72
2023/04/29 06:17:47;;;;;;;21.38;12.98;;;;;;;;;;5009784;28;20013;-71
2023/04/29 06:20:12;;;;;;;22.90;13.57;;;;;;;;;;5009400;28;20018;-71
2023/04/29 06:22:37;;;;;;;22.42;12.50;;;;;;;;;;5009642;28;20394;-69
2023/04/29 06:25:03;;;;;;;22.25;13.15;;;;;;;;;;5009130;28;20384;-70
2023/04/29 06:27:28;;;;;;;21.77;11.77;;;;;;;;;;5009013;28;20490;-70
2023/04/29 06:29:54;;;;;;;21.95;12.30;;;;;;;;;;5001875;28;20502;-71
2023/04/29 06:32:19;;;;;;;24.33;13.80;;;;;;;;;;5002668;28;20037;-69
2023/04/29 06:34:45;;;;;;;27.30;14.95;;;;;;;;;;5006852;28;20105;-72
2023/04/29 06:37:10;;;;;;;25.45;14.13;;;;;;;;;;5002077;28;20033;-72
2023/04/29 06:39:35;;;;;;;26.17;14.07;;;;;;;;;;5005520;28;20019;-71
2023/04/29 06:42:00;;;;;;;26.08;13.25;;;;;;;;;;5009095;28;20104;-73
2023/04/29 06:44:26;;;;;;;26.27;14.10;;;;;;;;;;5008581;28;20024;-69
2023/04/29 06:46:51;;;;;;;26.13;13.57;;;;;;;;;;5008424;28;20248;-71
2023/04/29 06:49:17;;;;;;;24.55;13.13;;;;;;;;;;5002689;28;20373;-69
2023/04/29 06:51:42;;;;;;;20.15;10.93;;;;;;;;;;4992818;28;20029;-71
2023/04/29 06:54:07;;;;;;;16.30;9.38;;;;;;;;;;5005082;28;20014;-71
2023/04/29 06:56:33;;;;;;;21.35;10.35;;;;;;;;;;5015121;28;20010;-71
2023/04/29 06:58:58;;;;;;;17.88;9.95;;;;;;;;;;5010962;28;20518;-70
2023/04/29 07:01:23;;;;;;;14.52;8.75;;;;;;;;;;5008348;28;20182;-73
2023/04/29 07:03:48;;;;;;;17.58;9.73;;;;;;;;;;5009271;28;20117;-69
2023/04/29 07:06:14;;;;;;;18.83;9.70;;;;;;;;;;5008678;28;20105;-71
2023/04/29 07:08:39;;;;;;;18.40;9.27;;;;;;;;;;5014779;28;20156;-71
2023/04/29 07:11:04;;;;;;;17.38;10.05;;;;;;;;;;5013947;28;20014;-70
2023/04/29 07:13:30;;;;;;;18.48;9.63;;;;;;;;;;5007867;28;20075;-69
2023/04/29 07:15:55;;;;;;;14.25;8.95;;;;;;;;;;5007954;28;20125;-70
2023/04/29 07:18:21;;;;;;;19.05;9.35;;;;;;;;;;5009012;28;20108;-72
2023/04/29 07:20:46;;;;;;;16.27;8.90;;;;;;;;;;5004414;28;20387;-70
2023/04/29 07:23:13;;;;;;;16.15;8.38;;;;;;;;;;5008491;28;20018;-69
2023/04/29 07:25:38;;;;;;;16.02;9.05;;;;;;;;;;5000547;28;20025;-71
2023/04/29 07:28:03;;;;;;;18.33;8.63;;;;;;;;;;5007971;28;20480;-70
2023/04/29 07:30:29;;;;;;;15.18;8.15;;;;;;;;;;5007895;28;20424;-71
2023/04/29 07:32:54;;;;;;;14.40;8.00;;;;;;;;;;5013294;28;20029;-71
2023/04/29 07:35:19;;;;;;;22.83;7.57;;;;;;;;;;5006772;28;20527;-72
2023/04/29 07:37:45;;;;;;;14.88;8.07;;;;;;;;;;5002397;28;20445;-69
2023/04/29 07:40:10;;;;;;;14.68;8.25;;;;;;;;;;5000903;28;20033;-73
2023/04/29 07:42:35;;;;;;;15.13;7.88;;;;;;;;;;5001176;28;20027;-72
2023/04/29 07:45:01;;;;;;;11.77;7.00;;;;;;;;;;5009052;28;20387;-72
2023/04/29 07:47:26;;;;;;;13.88;7.07;;;;;;;;;;5014901;28;20041;-69
2023/04/29 07:49:51;;;;;;;12.80;6.78;;;;;;;;;;5009399;28;20045;-73
2023/04/29 07:52:17;;;;;;;13.75;7.78;;;;;;;;;;4994814;28;20049;-72
2023/04/29 07:54:42;;;;;;;16.08;7.60;;;;;;;;;;5010148;28;20010;-71
2023/04/29 07:57:07;;;;;;;13.50;7.35;;;;;;;;;;5000810;28;20432;-73
2023/04/29 07:59:34;;;;;;;11.85;7.32;;;;;;;;;;5007721;28;20073;-70
2023/04/29 08:01:59;;;;;;;14.82;7.93;;;;;;;;;;5018055;28;20045;-73
2023/04/29 08:04:24;;;;;;;16.25;8.38;;;;;;;;;;5005036;28;20026;-71
2023/04/29 08:06:49;;;;;;;17.35;8.98;;;;;;;;;;5008232;28;20028;-72
2023/04/29 08:09:15;;;;;;;14.65;9.38;;;;;;;;;;5014333;28;20017;-69
2023/04/29 08:11:40;;;;;;;16.13;9.80;;;;;;;;;;5010830;28;20026;-72
2023/04/29 08:14:06;;;;;;;21.55;10.63;;;;;;;;;;5010832;28;20520;-69
2023/04/29 08:16:31;;;;;;;16.40;9.88;;;;;;;;;;5010551;28;20034;-72
2023/04/29 08:18:56;;;;;;;20.25;12.98;;;;;;;;;;5012201;28;20021;-72
2023/04/29 08:21:22;;;;;;;20.10;11.55;;;;;;;;;;5009147;28;20183;-70
2023/04/29 08:23:47;;;;;;;20.50;10.95;;;;;;;;;;5003868;28;20627;-72
2023/04/29 08:26:13;;;;;;;20.95;13.23;;;;;;;;;;5016164;28;20021;-70
2023/04/29 08:28:38;;;;;;;21.10;11.38;;;;;;;;;;5004230;28;20058;-72
2023/04/29 08:31:06;;;;;;;22.65;12.20;;;;;;;;;;5001078;28;20025;-72
2023/04/29 08:33:31;;;;;;;19.48;12.00;;;;;;;;;;5003260;28;20022;-71
2023/04/29 08:35:58;;;;;;;18.85;10.85;;;;;;;;;;5011781;28;20383;-73
2023/04/29 08:38:24;;;;;;;16.08;9.60;;;;;;;;;;5007634;28;20030;-72
2023/04/29 08:40:49;;;;;;;19.83;10.20;;;;;;;;;;5010245;28;20414;-73
2023/04/29 08:43:15;;;;;;;16.20;9.00;;;;;;;;;;5010472;28;20038;-71
2023/04/29 08:45:41;;;;;;;15.85;8.40;;;;;;;;;;5014769;28;20038;-73
2023/04/29 08:48:07;;;;;;;14.82;8.60;;;;;;;;;;5015330;28;20056;-73
2023/04/29 08:50:36;;;;;;;15.02;7.40;;;;;;;;;;5005018;28;20094;-68
2023/04/29 08:53:02;;;;;;;13.27;8.00;;;;;;;;;;5010389;28;20403;-69
2023/04/29 08:55:27;;;;;;;16.90;8.13;;;;;;;;;;5002606;28;20589;-70
2023/04/29 08:57:53;;;;;;;15.45;7.57;;;;;;;;;;5022381;28;20418;-70
2023/04/29 09:00:19;;;;;;;12.02;7.25;;;;;;;;;;5011293;28;20025;-71
2023/04/29 09:02:48;;;;;;;13.52;7.25;;;;;;;;;;5009531;28;20040;-69
2023/04/29 09:05:13;;;;;;;11.95;6.90;;;;;;;;;;5009921;28;20105;-70
2023/04/29 09:07:39;;;;;;;11.80;6.22;;;;;;;;;;5003309;28;20141;-71
2023/04/29 09:10:05;;;;;;;12.40;7.03;;;;;;;;;;5017296;28;20499;-68
2023/04/29 09:12:30;;;;;;;13.00;6.72;;;;;;;;;;5007085;28;20096;-69
2023/04/29 09:14:56;;;;;;;11.63;6.85;;;;;;;;;;5007894;28;20021;-70
2023/04/29 09:17:39;;;;;;;12.45;7.03;;;;;;;;;;5009359;28;20049;-69
2023/04/29 09:20:20;;;;;;;12.32;7.03;;;;;;;;;;5009643;28;20013;-69
2023/04/29 09:22:48;;;;;;;11.68;8.27;;;;;;;;;;4998125;28;20022;-68
2023/04/29 09:25:14;;;;;;;18.23;7.82;;;;;;;;;;5004340;28;20117;-69
2023/04/29 09:27:39;;;;;;;16.05;8.80;;;;;;;;;;5005981;28;20117;-70
2023/04/29 09:30:05;;;;;;;16.92;8.30;;;;;;;;;;5009269;28;20085;-71
2023/04/29 09:32:30;;;;;;;16.70;9.02;;;;;;;;;;5005961;28;20459;-71
2023/04/29 09:34:55;;;;;;;13.55;8.75;;;;;;;;;;5010266;28;20030;-67
2023/04/29 09:37:25;;;;;;;14.77;8.60;;;;;;;;;;5010739;28;20234;-71
2023/04/29 09:39:50;;;;;;;14.68;8.43;;;;;;;;;;5003726;28;20023;-71
2023/04/29 09:42:15;;;;;;;15.60;8.23;;;;;;;;;;4999710;28;20075;-68
2023/04/29 09:44:41;;;;;;;16.98;8.57;;;;;;;;;;5009255;28;20022;-69
2023/04/29 09:47:07;;;;;;;13.35;7.93;;;;;;;;;;5009389;28;20045;-68
2023/04/29 09:49:37;;;;;;;15.57;7.65;;;;;;;;;;5012349;28;20025;-70
2023/04/29 09:52:04;;;;;;;14.50;7.63;;;;;;;;;;5009604;28;20022;-70
2023/04/29 09:54:30;;;;;;;12.52;7.25;;;;;;;;;;5006992;28;20571;-69
2023/04/29 09:56:56;;;;;;;12.15;7.13;;;;;;;;;;5025647;28;20337;-72
2023/04/29 09:59:22;;;;;;;14.18;7.82;;;;;;;;;;5011899;28;20076;-71
2023/04/29 10:01:48;;;;;;;13.75;7.82;;;;;;;;;;5002829;28;20022;-71
2023/04/29 10:04:15;;;;;;;12.68;7.50;;;;;;;;;;4996029;28;20513;-69
2023/04/29 10:06:41;;;;;;;11.55;6.72;;;;;;;;;;5011708;28;20021;-71
2023/04/29 10:09:07;;;;;;;12.32;7.40;;;;;;;;;;5019165;28;20428;-69
2023/04/29 10:11:33;;;;;;;13.85;8.65;;;;;;;;;;5005472;28;20045;-71
2023/04/29 10:13:58;;;;;;;15.65;6.82;;;;;;;;;;5006250;28;20033;-70
2023/04/29 10:16:33;;;;;;;14.10;7.60;;;;;;;;;;5012911;28;20038;-69
2023/04/29 10:18:59;;;;;;;13.70;7.43;;;;;;;;;;5014127;28;20356;-69
2023/04/29 10:21:29;;;;;;;14.77;8.65;;;;;;;;;;5017553;28;20049;-70
2023/04/29 10:23:55;;;;;;;14.35;7.95;;;;;;;;;;5006680;28;20061;-70
2023/04/29 10:26:22;;;;;;;12.50;6.55;;;;;;;;;;5007169;28;20049;-69
2023/04/29 10:28:50;;;;;;;10.98;6.03;;;;;;;;;;5012715;28;20032;-67
2023/04/29 10:31:16;;;;;;;10.10;5.90;;;;;;;;;;5006975;28;20034;-69
2023/04/29 10:33:44;;;;;;;10.10;6.47;;;;;;;;;;5004475;28;20092;-67
2023/04/29 10:36:10;;;;;;;8.68;5.63;;;;;;;;;;5009699;28;20024;-68
2023/04/29 10:38:43;;;;;;;10.55;5.78;;;;;;;;;;5003265;28;20030;-68
2023/04/29 10:41:29;;;;;;;10.48;6.20;;;;;;;;;;5009330;28;20041;-68
2023/04/29 10:43:54;;;;;;;10.20;5.78;;;;;;;;;;5007760;28;20113;-68
2023/04/29 10:46:21;;;;;;;10.93;6.10;;;;;;;;;;5007704;28;20056;-70
2023/04/29 10:48:46;;;;;;;13.02;6.72;;;;;;;;;;5005945;28;20041;-69
2023/04/29 10:51:13;;;;;;;8.93;6.13;;;;;;;;;;5009228;28;20022;-68
2023/04/29 10:53:57;;;;;;;12.02;7.35;;;;;;;;;;5008725;28;20018;-70
2023/04/29 10:56:34;;;;;;;12.95;7.55;;;;;;;;;;5015583;28;20044;-71
2023/04/29 10:58:59;;;;;;;14.38;7.30;;;;;;;;;;5001249;28;20053;-68
2023/04/29 11:01:39;;;;;;;15.57;7.25;;;;;;;;;;5007925;28;20046;-67
2023/04/29 11:04:04;;;;;;;13.80;8.07;;;;;;;;;;5007694;28;20526;-70
2023/04/29 11:06:35;;;;;;;14.30;8.50;;;;;;;;;;5008374;28;20116;-69
2023/04/29 11:09:08;;;;;;;15.52;8.18;;;;;;;;;;5016544;28;20021;-68
2023/04/29 11:11:43;;;;;;;12.48;7.97;;;;;;;;;;5004825;28;20030;-71
2023/04/29 11:14:12;;;;;;;16.10;8.77;;;;;;;;;;5008383;28;20018;-69
2023/04/29 11:16:37;;;;;;;19.02;8.55;;;;;;;;;;5008470;28;20333;-70
2023/04/29 11:19:03;;;;;;;14.93;8.07;;;;;;;;;;5005369;28;20550;-69
2023/04/29 11:21:29;;;;;;;17.23;9.85;;;;;;;;;;5008142;28;20391;-71
2023/04/29 11:23:56;;;;;;;15.27;9.77;;;;;;;;;;5003906;28;20068;-69
2023/04/29 11:26:22;;;;;;;18.52;10.75;;;;;;;;;;5008459;28;20033;-69
2023/04/29 11:28:48;;;;;;;16.77;10.75;;;;;;;;;;5008310;28;20511;-69
2023/04/29 11:31:13;;;;;;;19.42;11.20;;;;;;;;;;5007117;28;20022;-67
2023/04/29 11:33:38;;;;;;;20.63;11.60;;;;;;;;;;5017749;28;20629;-70
2023/04/29 11:36:04;;;;;;;19.17;10.38;;;;;;;;;;5007811;28;20179;-69
2023/04/29 11:38:29;;;;;;;17.45;11.68;;;;;;;;;;4998494;28;20030;-68
2023/04/29 11:40:55;;;;;;;20.30;11.60;;;;;;;;;;4990930;28;20028;-69
2023/04/29 11:43:21;;;;;;;22.00;11.30;;;;;;;;;;5002561;28;20365;-68
2023/04/29 11:45:47;;;;;;;20.17;10.77;;;;;;;;;;4995613;28;20026;-68
2023/04/29 11:48:22;;;;;;;18.20;10.48;;;;;;;;;;5003261;28;20018;-68
2023/04/29 11:50:49;;;;;;;19.63;10.05;;;;;;;;;;5005682;28;20593;-69
2023/04/29 11:53:14;;;;;;;21.05;10.45;;;;;;;;;;5003743;28;20064;-70
2023/04/29 11:55:43;;;;;;;20.92;10.90;;;;;;;;;;5003791;28;20049;-70
2023/04/29 11:58:08;;;;;;;17.90;10.93;;;;;;;;;;5018789;28;20027;-72
2023/04/29 12:00:34;;;;;;;21.85;11.98;;;;;;;;;;5031129;22;20121;-69
2023/04/29 12:02:59;;;;;;;21.45;11.90;;;;;;;;;;5017161;28;20351;-69
2023/04/29 12:05:27;;;;;;;20.73;12.25;;;;;;;;;;5027023;28;20017;-69
2023/04/29 12:07:55;;;;;;;19.90;11.52;;;;;;;;;;5028716;28;20021;-68
2023/04/29 12:10:21;;;;;;;20.87;11.23;;;;;;;;;;5018683;28;20052;-67
2023/04/29 12:12:47;;;;;;;23.00;11.43;;;;;;;;;;5009774;28;20330;-69
2023/04/29 12:15:13;;;;;;;19.00;11.35;;;;;;;;;;4995063;28;20106;-69
2023/04/29 12:17:38;;;;;;;19.20;10.90;;;;;;;;;;5008375;28;20066;-69
2023/04/29 12:20:04;;;;;;;18.63;11.43;;;;;;;;;;5009602;28;20026;-67
2023/04/29 12:22:33;;;;;;;15.43;9.93;;;;;;;;;;5008827;28;20018;-68
2023/04/29 12:24:58;;;;;;;16.90;10.43;;;;;;;;;;5016831;28;20033;-70
2023/04/29 12:27:23;;;;;;;18.77;10.40;;;;;;;;;;5013179;28;20034;-66
2023/04/29 12:29:51;;;;;;;14.88;9.90;;;;;;;;;;5008151;28;20072;-68
2023/04/29 12:32:17;;;;;;;16.20;9.27;;;;;;;;;;5009440;28;20139;-72
2023/04/29 12:34:44;;;;;;;16.60;10.10;;;;;;;;;;5009733;28;20479;-71
2023/04/29 12:37:11;;;;;;;16.10;10.20;;;;;;;;;;5010889;28;20026;-70
2023/04/29 12:39:37;;;;;;;13.85;8.75;;;;;;;;;;5011185;28;20099;-69
2023/04/29 12:42:02;;;;;;;18.77;8.65;;;;;;;;;;5015439;28;20548;-69
2023/04/29 12:44:35;;;;;;;14.80;8.77;;;;;;;;;;5020456;28;20041;-68
2023/04/29 12:47:05;;;;;;;16.20;9.65;;;;;;;;;;5020543;28;20030;-69
2023/04/29 12:49:32;;;;;;;24.48;9.43;;;;;;;;;;5006204;28;20100;-68
2023/04/29 12:51:58;;;;;;;13.52;8.95;;;;;;;;;;5014404;28;20033;-70
2023/04/29 12:54:23;;;;;;;14.55;8.65;;;;;;;;;;5011727;28;20399;-68
2023/04/29 12:56:49;;;;;;;14.02;8.27;;;;;;;;;;5014776;28;20085;-66
2023/04/29 12:59:14;;;;;;;14.00;8.35;;;;;;;;;;5017965;28;20018;-67
2023/04/29 13:01:39;;;;;;;13.07;6.93;;;;;;;;;;5012330;28;20029;-68
2023/04/29 13:04:07;;;;;;;16.75;8.68;;;;;;;;;;5012221;28;20025;-66
2023/04/29 13:06:33;;;;;;;21.50;8.98;;;;;;;;;;5014570;28;20113;-66
2023/04/29 13:08:58;;;;;;;14.25;8.20;;;;;;;;;;5019447;28;20108;-71
2023/04/29 13:11:23;;;;;;;14.70;8.27;;;;;;;;;;5013667;28;20079;-69
2023/04/29 13:13:48;;;;;;;17.98;8.68;;;;;;;;;;5007780;28;20021;-67
2023/04/29 13:16:14;;;;;;;13.45;8.27;;;;;;;;;;5001827;28;20042;-68
2023/04/29 13:18:39;;;;;;;15.23;8.48;;;;;;;;;;5016989;28;20030;-69
2023/04/29 13:21:04;;;;;;;13.95;8.23;;;;;;;;;;5015799;28;20017;-67
2023/04/29 13:23:30;;;;;;;13.77;7.88;;;;;;;;;;5015331;28;20036;-67
2023/04/29 13:25:55;;;;;;;14.50;7.75;;;;;;;;;;5019395;28;20154;-69
2023/04/29 13:28:21;;;;;;;12.15;6.97;;;;;;;;;;5012737;28;20399;-68
2023/04/29 13:30:46;;;;;;;16.08;7.63;;;;;;;;;;5012966;28;20536;-69
2023/04/29 13:33:12;;;;;;;11.93;7.25;;;;;;;;;;5023269;28;20104;-66
2023/04/29 13:35:38;;;;;;;11.63;7.07;;;;;;;;;;5020079;28;20118;-71
2023/04/29 13:38:04;;;;;;;12.77;7.47;;;;;;;;;;5016024;28;20021;-67
2023/04/29 13:40:29;;;;;;;14.23;8.40;;;;;;;;;;5007737;28;20022;-68
2023/04/29 13:42:54;;;;;;;10.85;7.68;;;;;;;;;;5018971;28;20029;-67
2023/04/29 13:45:20;;;;;;;13.50;7.57;;;;;;;;;;5020240;28;20029;-68
2023/04/29 13:47:45;;;;;;;18.38;8.05;;;;;;;;;;5019413;28;20116;-68
2023/04/29 13:50:10;;;;;;;14.55;8.30;;;;;;;;;;5019998;28;20099;-67
2023/04/29 13:52:35;;;;;;;14.38;7.55;;;;;;;;;;5008582;28;20034;-69
2023/04/29 13:55:01;;;;;;;13.50;7.43;;;;;;;;;;5009223;28;20017;-65
2023/04/29 13:57:26;;;;;;;14.32;8.35;;;;;;;;;;5011726;28;20053;-70
2023/04/29 13:59:53;;;;;;;14.68;8.05;;;;;;;;;;5012740;28;20365;-68
2023/04/29 14:02:19;;;;;;;14.63;7.63;;;;;;;;;;5005323;28;20049;-69
2023/04/29 14:04:44;;;;;;;15.07;8.02;;;;;;;;;;5015848;28;20026;-70
2023/04/29 14:07:09;;;;;;;13.38;8.18;;;;;;;;;;5016405;28;20450;-68
2023/04/29 14:09:35;;;;;;;23.63;7.90;;;;;;;;;;5015791;28;20022;-68
2023/04/29 14:12:00;;;;;;;10.80;7.03;;;;;;;;;;5015675;28;20029;-65
2023/04/29 14:14:25;;;;;;;11.65;7.05;;;;;;;;;;5015593;28;20032;-68
2023/04/29 14:16:50;;;;;;;15.45;7.88;;;;;;;;;;5014737;28;20069;-69